Time;durP1;ratioP1;P1;durP2;ratioP2;P2;SDS_P1;SDS_P2;PMS_P1;PMS_P2;Temp;Humidity;BMP_temperature;BMP_pressure;BME280_temperature;BME280_humidity;BME280_pressure;Samples;Min_cycle;Max_cycle;Signal;HPM_P1;HPM_P2
2022/11/22 00:00:39;;;;;;;38.90;18.70;;;;;;;0.20;93.75;99038.95;105459;1295;59079;-80
2022/11/22 00:03:07;;;;;;;39.90;18.90;;;;;;;0.21;93.88;99035.40;105560;1294;73333;-79
2022/11/22 00:05:34;;;;;;;39.70;18.00;;;;;;;0.23;93.99;99031.77;105429;1290;69274;-80
2022/11/22 00:08:01;;;;;;;40.50;17.80;;;;;;;0.25;94.19;99028.30;105559;1293;71107;-80
2022/11/22 00:10:27;;;;;;;37.30;16.70;;;;;;;0.24;94.26;99029.17;105574;1294;60928;-79
2022/11/22 00:12:57;;;;;;;42.40;19.00;;;;;;;0.26;94.55;99031.96;105351;1290;59801;-79
2022/11/22 00:15:23;;;;;;;40.30;17.50;;;;;;;0.27;94.48;99028.55;105445;1290;74740;-80
2022/11/22 00:17:50;;;;;;;42.50;20.60;;;;;;;0.31;94.63;99026.81;105475;1280;59542;-79
2022/11/22 00:20:19;;;;;;;37.70;18.00;;;;;;;0.32;94.64;99028.46;105510;1286;71218;-80
2022/11/22 00:22:46;;;;;;;37.40;16.80;;;;;;;0.33;94.62;99025.90;105316;1297;61218;-79
2022/11/22 00:25:13;;;;;;;42.40;19.10;;;;;;;0.33;94.87;99019.95;105451;1289;60180;-79
2022/11/22 00:27:41;;;;;;;43.60;19.40;;;;;;;0.34;94.88;99016.35;105344;1294;73469;-80
2022/11/22 00:30:07;;;;;;;40.60;19.30;;;;;;;0.37;94.85;99020.65;105520;1286;71662;-80
2022/11/22 00:32:34;;;;;;;44.30;19.60;;;;;;;0.38;94.93;99021.52;105541;1293;72435;-80
2022/11/22 00:35:01;;;;;;;41.20;19.00;;;;;;;0.40;94.99;99020.98;105608;1291;59007;-80
2022/11/22 00:37:27;;;;;;;40.60;18.30;;;;;;;0.42;94.98;99014.79;105329;1286;60101;-79
2022/11/22 00:39:54;;;;;;;41.70;19.50;;;;;;;0.45;95.03;99018.88;105624;1294;74404;-80
2022/11/22 00:42:23;;;;;;;45.00;20.20;;;;;;;0.47;94.95;99009.89;105554;1287;58951;-79
2022/11/22 00:44:52;;;;;;;39.80;18.90;;;;;;;0.50;95.23;99007.07;105338;1297;71110;-79
2022/11/22 00:47:18;;;;;;;41.50;19.20;;;;;;;0.51;95.07;99002.77;105547;1285;60025;-80
2022/11/22 00:49:46;;;;;;;42.00;20.10;;;;;;;0.52;95.31;99008.56;105528;1294;59700;-80
2022/11/22 00:52:13;;;;;;;41.20;19.90;;;;;;;0.54;95.25;99008.74;105484;1294;59882;-79
2022/11/22 00:54:41;;;;;;;39.10;17.90;;;;;;;0.55;95.34;99012.60;105537;1294;69334;-80
2022/11/22 00:57:07;;;;;;;43.70;20.40;;;;;;;0.57;95.20;99009.26;105497;1294;72509;-80
2022/11/22 00:59:33;;;;;;;41.70;19.90;;;;;;;0.60;95.20;98999.17;105515;1294;60974;-80
2022/11/22 01:02:01;;;;;;;40.80;19.80;;;;;;;0.64;95.20;98995.92;105489;1294;60111;-79
2022/11/22 01:04:28;;;;;;;43.00;20.00;;;;;;;0.64;95.36;98988.72;105658;1293;58836;-80
2022/11/22 01:06:54;;;;;;;42.80;20.30;;;;;;;0.65;95.31;98982.23;105544;1289;59090;-79
2022/11/22 01:09:22;;;;;;;42.60;20.60;;;;;;;0.67;95.26;98972.65;105601;1294;59000;-80
2022/11/22 01:11:52;;;;;;;40.50;19.60;;;;;;;0.69;95.16;98974.66;105523;1294;60926;-79
2022/11/22 01:14:18;;;;;;;38.90;18.80;;;;;;;0.69;95.31;98970.52;105491;1290;61591;-80
2022/11/22 01:16:46;;;;;;;40.70;19.20;;;;;;;0.69;95.35;98960.80;105582;1295;74860;-80
2022/11/22 01:19:13;;;;;;;42.90;19.70;;;;;;;0.70;95.49;98961.20;105505;1294;69879;-80
2022/11/22 01:21:39;;;;;;;38.70;18.90;;;;;;;0.70;95.66;98962.92;105520;1287;72849;-80
2022/11/22 01:24:06;;;;;;;37.70;19.20;;;;;;;0.71;95.47;98968.05;105506;1294;59366;-80
2022/11/22 01:26:36;;;;;;;41.70;20.40;;;;;;;0.74;95.34;98962.81;105365;1295;59305;-80
2022/11/22 01:29:03;;;;;;;40.30;18.60;;;;;;;0.77;95.44;98961.17;105486;1296;74087;-80
2022/11/22 01:31:30;;;;;;;37.90;19.10;;;;;;;0.78;95.36;98958.47;105349;1295;69827;-80
2022/11/22 01:33:57;;;;;;;35.80;17.80;;;;;;;0.78;95.28;98952.52;105507;1301;71438;-80
2022/11/22 01:36:26;;;;;;;35.70;18.70;;;;;;;0.79;95.50;98948.91;105353;1297;59393;-79
2022/11/22 01:38:55;;;;;;;37.20;19.80;;;;;;;0.79;95.68;98951.23;105471;1296;59464;-79
2022/11/22 01:41:21;;;;;;;34.20;18.60;;;;;;;0.80;95.27;98949.84;105373;1290;58626;-80
2022/11/22 01:43:51;;;;;;;37.40;19.20;;;;;;;0.82;95.30;98939.44;105501;1288;70634;-80
2022/11/22 01:46:38;;;;;;;32.60;17.40;;;;;;;0.82;95.37;98939.11;105655;1293;71157;-80
2022/11/22 01:49:25;;;;;;;36.30;18.50;;;;;;;0.80;95.41;98950.89;105884;1287;61842;-79
2022/11/22 01:51:58;;;;;;;35.70;18.80;;;;;;;0.79;95.35;98948.27;105812;1290;60276;-80
2022/11/22 01:54:31;;;;;;;36.00;19.10;;;;;;;0.82;95.38;98934.05;105846;1280;75523;-79
2022/11/22 01:57:03;;;;;;;36.00;19.10;;;;;;;0.84;95.20;98922.57;105799;1294;70260;-79
2022/11/22 01:59:32;;;;;;;40.20;20.10;;;;;;;0.85;95.14;98917.79;105793;1290;70209;-79
2022/11/22 02:02:03;;;;;;;35.50;19.90;;;;;;;0.86;94.94;98920.40;105799;1287;59942;-79
2022/11/22 02:04:31;;;;;;;37.00;18.80;;;;;;;0.89;94.93;98932.84;105764;1287;59107;-80
2022/11/22 02:07:15;;;;;;;33.30;17.70;;;;;;;0.89;95.01;98936.45;105670;1294;73182;-82
2022/11/22 02:09:43;;;;;;;35.10;18.90;;;;;;;0.90;94.73;98926.81;105781;1287;69680;-82
2022/11/22 02:12:11;;;;;;;33.80;19.00;;;;;;;0.93;94.94;98928.95;105866;1290;72032;-80
2022/11/22 02:14:39;;;;;;;34.40;19.30;;;;;;;0.95;94.62;98925.05;105612;1288;60969;-80
2022/11/22 02:17:05;;;;;;;35.20;18.70;;;;;;;0.97;94.54;98923.98;105682;1287;59272;-80
2022/11/22 02:19:44;;;;;;;35.80;18.50;;;;;;;0.99;94.44;98922.73;105513;1294;74616;-79
2022/11/22 02:22:19;;;;;;;35.90;18.90;;;;;;;0.99;94.33;98915.50;105505;1295;68708;-79
2022/11/22 02:24:54;;;;;;;33.80;17.90;;;;;;;0.95;94.36;98920.66;105582;1287;71343;-78
2022/11/22 02:27:22;;;;;;;37.60;20.50;;;;;;;0.91;94.46;98920.38;105340;1290;59520;-79
2022/11/22 02:29:48;;;;;;;37.30;20.10;;;;;;;0.89;94.61;98923.09;105617;1287;60338;-79
2022/11/22 02:32:15;;;;;;;35.70;19.10;;;;;;;0.87;94.67;98921.38;105533;1288;58991;-80
2022/11/22 02:34:48;;;;;;;37.30;20.00;;;;;;;0.85;94.86;98921.44;105620;1286;58999;-79
2022/11/22 02:37:21;;;;;;;36.20;17.70;;;;;;;0.84;94.86;98925.83;105618;1294;70868;-79
2022/11/22 02:39:51;;;;;;;41.20;21.10;;;;;;;0.81;95.03;98916.89;105309;1282;60395;-79
2022/11/22 02:42:18;;;;;;;41.30;21.70;;;;;;;0.83;95.18;98916.72;105603;1287;59903;-79
2022/11/22 02:44:45;;;;;;;41.40;20.80;;;;;;;0.82;95.12;98915.29;105660;1285;73776;-79
2022/11/22 02:47:12;;;;;;;39.10;21.10;;;;;;;0.82;95.30;98918.91;105650;1291;59339;-79
2022/11/22 02:49:38;;;;;;;42.40;21.40;;;;;;;0.84;95.17;98909.48;105744;1286;59022;-79
2022/11/22 02:52:05;;;;;;;37.30;19.30;;;;;;;0.86;95.26;98902.90;105688;1288;59474;-79
2022/11/22 02:54:31;;;;;;;39.90;21.20;;;;;;;0.86;95.18;98899.86;105636;1293;59098;-79
2022/11/22 02:56:58;;;;;;;37.30;19.70;;;;;;;0.86;95.33;98892.23;105478;1294;59262;-79
2022/11/22 02:59:25;;;;;;;37.70;19.00;;;;;;;0.83;95.36;98890.46;105512;1294;70099;-79
2022/11/22 03:01:55;;;;;;;39.10;20.70;;;;;;;0.80;95.49;98889.80;105525;1294;71529;-79
2022/11/22 03:04:28;;;;;;;36.90;19.40;;;;;;;0.81;95.53;98889.45;105437;1293;61229;-80
2022/11/22 03:06:57;;;;;;;41.60;20.00;;;;;;;0.79;95.58;98895.04;105515;1281;58890;-79
2022/11/22 03:09:25;;;;;;;37.20;18.60;;;;;;;0.79;95.65;98891.45;105700;1294;74814;-79
2022/11/22 03:11:53;;;;;;;38.70;20.40;;;;;;;0.78;95.56;98889.82;105551;1285;69921;-78
2022/11/22 03:14:20;;;;;;;38.10;19.50;;;;;;;0.79;95.71;98893.77;105400;1290;71741;-79
2022/11/22 03:16:49;;;;;;;36.30;19.50;;;;;;;0.80;95.63;98905.69;105468;1294;59425;-79
2022/11/22 03:19:16;;;;;;;37.90;19.70;;;;;;;0.83;95.46;98906.58;105503;1293;59014;-79
2022/11/22 03:21:43;;;;;;;35.00;18.10;;;;;;;0.85;95.46;98908.23;105696;1293;75384;-79
2022/11/22 03:24:10;;;;;;;38.60;19.00;;;;;;;0.84;95.55;98907.91;105702;1287;72056;-79
2022/11/22 03:26:37;;;;;;;38.10;19.70;;;;;;;0.86;95.38;98904.44;105427;1290;71418;-79
2022/11/22 03:29:04;;;;;;;39.40;20.00;;;;;;;0.89;95.45;98898.77;105532;1293;60107;-79
2022/11/22 03:31:30;;;;;;;36.60;19.70;;;;;;;0.89;95.42;98894.75;105640;1294;60362;-79
2022/11/22 03:33:57;;;;;;;34.50;18.40;;;;;;;0.89;95.51;98893.17;105666;1295;74568;-79
2022/11/22 03:36:23;;;;;;;37.20;19.50;;;;;;;0.88;95.48;98884.24;105439;1296;59073;-79
2022/11/22 03:38:50;;;;;;;37.50;19.60;;;;;;;0.90;95.41;98878.80;105376;1287;73510;-79
2022/11/22 03:41:16;;;;;;;37.60;19.30;;;;;;;0.90;95.29;98874.23;105601;1294;59373;-79
2022/11/22 03:43:43;;;;;;;35.60;18.50;;;;;;;0.92;95.28;98881.00;105438;1295;59060;-79
2022/11/22 03:46:14;;;;;;;37.00;20.20;;;;;;;0.93;95.48;98880.42;105600;1294;59035;-79
2022/11/22 03:48:43;;;;;;;35.40;18.80;;;;;;;0.94;95.31;98882.39;105358;1296;69775;-79
2022/11/22 03:51:10;;;;;;;35.00;17.30;;;;;;;0.95;95.47;98887.83;105439;1297;72482;-79
2022/11/22 03:53:37;;;;;;;35.00;18.80;;;;;;;0.97;95.31;98884.15;105525;1280;59430;-79
2022/11/22 03:56:04;;;;;;;39.20;20.70;;;;;;;0.98;95.26;98879.91;105345;1297;59361;-79
2022/11/22 03:58:33;;;;;;;35.20;19.70;;;;;;;0.97;95.48;98880.15;105459;1295;72994;-79
2022/11/22 04:01:00;;;;;;;36.10;19.90;;;;;;;0.99;95.22;98877.67;105505;1294;69653;-79
2022/11/22 04:03:26;;;;;;;39.40;20.10;;;;;;;1.01;95.40;98879.77;105474;1289;72008;-79
2022/11/22 04:05:58;;;;;;;35.30;19.00;;;;;;;1.00;95.25;98879.98;105534;1286;59968;-79
2022/11/22 04:08:24;;;;;;;38.40;20.50;;;;;;;1.00;95.42;98881.02;105503;1295;60135;-79
2022/11/22 04:10:51;;;;;;;34.90;18.90;;;;;;;1.01;95.32;98880.39;105522;1294;74811;-79
2022/11/22 04:13:19;;;;;;;34.90;19.30;;;;;;;1.02;95.36;98875.79;105544;1294;70185;-79
2022/11/22 04:15:45;;;;;;;34.20;20.10;;;;;;;1.03;95.18;98871.87;105320;1296;71157;-79
2022/11/22 04:18:13;;;;;;;38.20;19.60;;;;;;;1.03;95.27;98876.90;105546;1294;59060;-79
2022/11/22 04:23:26;;;;;;;37.10;20.70;;;;;;;1.06;95.31;98886.38;105462;1285;74187;-79
2022/11/22 04:25:59;;;;;;;33.70;19.50;;;;;;;1.07;95.43;98884.19;105449;1294;69818;-79
2022/11/22 04:28:26;;;;;;;35.20;20.00;;;;;;;1.09;95.30;98882.39;105468;1294;71472;-79
2022/11/22 04:33:57;;;;;;;40.50;20.50;;;;;;;1.13;95.15;98884.73;105569;1295;60295;-79
2022/11/22 04:36:24;;;;;;;35.40;20.10;;;;;;;1.16;95.18;98886.70;105558;1293;58937;-79
2022/11/22 04:38:51;;;;;;;34.80;20.00;;;;;;;1.19;95.28;98885.56;105477;1294;59241;-79
2022/11/22 04:41:17;;;;;;;35.10;19.10;;;;;;;1.22;95.18;98886.91;105498;1294;72523;-79
2022/11/22 04:46:34;;;;;;;32.90;18.60;;;;;;;1.32;94.98;98891.34;105493;1281;59546;-79
2022/11/22 04:49:00;;;;;;;32.20;18.60;;;;;;;1.36;94.98;98894.55;105443;1294;59048;-79
2022/11/22 04:54:14;;;;;;;32.10;18.20;;;;;;;1.43;94.77;98900.64;105506;1287;71958;-79
2022/11/22 04:56:41;;;;;;;32.60;17.70;;;;;;;1.48;94.64;98900.15;105521;1293;59615;-79
2022/11/22 04:59:08;;;;;;;31.70;17.80;;;;;;;1.50;94.59;98902.22;105486;1287;59356;-79
2022/11/22 05:01:41;;;;;;;33.50;18.20;;;;;;;1.52;94.56;98907.91;105576;1295;73374;-79
2022/11/22 05:04:10;;;;;;;30.80;17.70;;;;;;;1.54;94.46;98901.77;105515;1294;71175;-79
2022/11/22 05:06:36;;;;;;;29.00;16.90;;;;;;;1.57;94.29;98900.54;105532;1287;71736;-79
2022/11/22 05:09:06;;;;;;;28.10;16.40;;;;;;;1.58;94.27;98900.90;105475;1294;59011;-79
2022/11/22 05:11:33;;;;;;;28.20;16.20;;;;;;;1.59;94.23;98906.27;105494;1295;61546;-79
2022/11/22 05:14:00;;;;;;;28.90;16.50;;;;;;;1.58;94.41;98904.75;105398;1294;75820;-79
2022/11/22 05:16:26;;;;;;;29.40;16.90;;;;;;;1.58;94.26;98903.02;105573;1294;59923;-79
2022/11/22 05:18:58;;;;;;;28.90;16.60;;;;;;;1.59;94.39;98904.30;105678;1287;59776;-78
2022/11/22 05:21:27;;;;;;;30.30;17.90;;;;;;;1.60;94.33;98908.08;105622;1294;60033;-78
2022/11/22 05:23:54;;;;;;;29.30;17.90;;;;;;;1.60;94.34;98911.23;105565;1291;60142;-78
2022/11/22 05:26:30;;;;;;;29.90;17.30;;;;;;;1.58;94.46;98914.52;105480;1287;73169;-79
2022/11/22 05:28:58;;;;;;;30.60;18.00;;;;;;;1.58;94.61;98911.77;105708;1292;69226;-79
2022/11/22 05:31:27;;;;;;;29.30;17.30;;;;;;;1.58;94.47;98910.70;105649;1294;71765;-79
2022/11/22 05:33:55;;;;;;;30.20;17.20;;;;;;;1.60;94.50;98911.94;105747;1287;59854;-79
2022/11/22 05:36:23;;;;;;;30.40;18.30;;;;;;;1.61;94.38;98910.40;105756;1287;60294;-79
2022/11/22 05:38:50;;;;;;;28.20;17.00;;;;;;;1.63;94.64;98908.63;105801;1292;74430;-79
2022/11/22 05:41:17;;;;;;;26.90;16.20;;;;;;;1.64;94.70;98912.17;105719;1294;69490;-79
2022/11/22 05:43:43;;;;;;;29.40;16.00;;;;;;;1.65;94.47;98907.07;105582;1294;72835;-79
2022/11/22 05:46:11;;;;;;;25.30;15.70;;;;;;;1.66;94.45;98906.61;105524;1294;59030;-79
2022/11/22 05:48:40;;;;;;;26.50;15.40;;;;;;;1.67;94.64;98902.63;105457;1297;59377;-79
2022/11/22 05:51:10;;;;;;;28.00;16.20;;;;;;;1.66;94.48;98906.98;105614;1293;74503;-79
2022/11/22 05:53:37;;;;;;;26.70;16.60;;;;;;;1.65;94.30;98909.32;105658;1294;70192;-79
2022/11/22 05:56:12;;;;;;;27.10;15.70;;;;;;;1.65;94.63;98906.23;105532;1294;71446;-79
2022/11/22 05:58:39;;;;;;;27.40;16.40;;;;;;;1.65;94.54;98916.48;105543;1294;59626;-79
2022/11/22 06:01:21;;;;;;;25.60;16.10;;;;;;;1.66;94.56;98914.27;105533;1293;58991;-79
2022/11/22 06:03:49;;;;;;;29.30;16.10;;;;;;;1.66;94.32;98910.63;105476;1293;75401;-79
2022/11/22 06:06:16;;;;;;;26.90;15.80;;;;;;;1.65;94.59;98909.09;105541;1294;69521;-79
2022/11/22 06:08:46;;;;;;;28.30;16.70;;;;;;;1.64;94.35;98911.87;105655;1294;73073;-80
2022/11/22 06:11:15;;;;;;;27.00;16.10;;;;;;;1.62;94.54;98911.65;105530;1294;60067;-80
2022/11/22 06:13:44;;;;;;;26.00;16.10;;;;;;;1.63;94.51;98910.70;105708;1294;60081;-79
2022/11/22 06:16:11;;;;;;;26.50;15.90;;;;;;;1.64;94.53;98907.54;105572;1295;73124;-79
2022/11/22 06:18:38;;;;;;;26.20;16.00;;;;;;;1.64;94.71;98905.58;105584;1286;70689;-79
2022/11/22 06:21:07;;;;;;;26.80;16.30;;;;;;;1.65;94.58;98908.64;105575;1294;70250;-79
2022/11/22 06:23:33;;;;;;;25.90;15.90;;;;;;;1.65;94.43;98908.26;105650;1287;59661;-79
2022/11/22 06:26:03;;;;;;;24.20;15.70;;;;;;;1.65;94.88;98909.27;105592;1286;58958;-79
2022/11/22 06:28:32;;;;;;;28.10;16.80;;;;;;;1.66;94.57;98915.14;105548;1285;73146;-79
2022/11/22 06:31:14;;;;;;;26.80;16.30;;;;;;;1.67;94.77;98920.31;105388;1288;217977;-79
2022/11/22 06:33:41;;;;;;;28.50;17.10;;;;;;;1.67;94.78;98917.08;105541;1294;71129;-79
2022/11/22 06:36:20;;;;;;;27.30;16.30;;;;;;;1.67;94.96;98922.34;105527;1293;60244;-79
2022/11/22 06:38:46;;;;;;;24.60;15.40;;;;;;;1.66;95.15;98923.67;105526;1293;60254;-74
2022/11/22 06:41:15;;;;;;;28.10;16.80;;;;;;;1.66;95.22;98925.90;105466;1295;74605;-74
2022/11/22 06:43:44;;;;;;;27.90;15.60;;;;;;;1.68;95.57;98925.02;105513;1292;71828;-74
2022/11/22 06:46:17;;;;;;;27.60;16.40;;;;;;;1.70;95.75;98925.31;105613;1287;73385;-74
2022/11/22 06:48:43;;;;;;;23.80;15.40;;;;;;;1.72;95.43;98926.49;105523;1287;60538;-74
2022/11/22 06:51:12;;;;;;;24.90;14.80;;;;;;;1.74;95.33;98925.10;105687;1285;59233;-74
2022/11/22 06:53:42;;;;;;;25.40;15.40;;;;;;;1.76;94.97;98920.88;105569;1294;75042;-74
2022/11/22 06:56:18;;;;;;;26.80;16.60;;;;;;;1.76;94.91;98927.45;105456;1287;71255;-74
2022/11/22 06:58:46;;;;;;;26.00;15.90;;;;;;;1.79;94.97;98935.52;105494;1295;71880;-74
2022/11/22 07:01:18;;;;;;;24.60;15.40;;;;;;;1.82;94.91;98944.45;105561;1291;60479;-74
2022/11/22 07:03:46;;;;;;;25.10;15.30;;;;;;;1.84;94.93;98941.31;105510;1288;59614;-74
2022/11/22 07:06:14;;;;;;;25.60;15.80;;;;;;;1.87;94.74;98936.67;105652;1294;73508;-74
2022/11/22 07:08:42;;;;;;;24.70;14.30;;;;;;;1.90;95.15;98937.90;105573;1294;70933;-74
2022/11/22 07:11:11;;;;;;;25.30;14.80;;;;;;;1.93;95.20;98936.34;105607;1286;72759;-74
2022/11/22 07:13:38;;;;;;;24.30;14.80;;;;;;;1.96;94.99;98934.45;105434;1296;60902;-75
2022/11/22 07:16:07;;;;;;;25.30;14.90;;;;;;;1.99;94.89;98930.84;105551;1294;59256;-74
2022/11/22 07:18:33;;;;;;;24.90;14.60;;;;;;;2.02;94.99;98935.17;105598;1294;75689;-74
2022/11/22 07:21:04;;;;;;;25.40;15.50;;;;;;;2.07;94.77;98944.63;105564;1285;69702;-74
2022/11/22 07:23:45;;;;;;;25.60;14.90;;;;;;;2.10;94.53;98944.83;105562;1295;72806;-74
2022/11/22 07:26:13;;;;;;;26.40;15.40;;;;;;;2.12;94.46;98950.19;105492;1281;59651;-75
2022/11/22 07:28:40;;;;;;;24.40;15.50;;;;;;;2.14;93.93;98957.50;105515;1293;59370;-75
2022/11/22 07:31:09;;;;;;;25.20;15.30;;;;;;;2.16;94.33;98966.02;105616;1295;73096;-75
2022/11/22 07:33:36;;;;;;;27.30;16.60;;;;;;;2.19;94.15;98973.17;105561;1287;70871;-74
2022/11/22 07:36:06;;;;;;;25.50;15.10;;;;;;;2.22;94.13;98976.37;105517;1293;73873;-74
2022/11/22 07:38:36;;;;;;;25.30;15.20;;;;;;;2.23;93.84;98976.34;105521;1294;61076;-74
2022/11/22 07:41:06;;;;;;;27.50;15.20;;;;;;;2.26;93.76;98973.10;105468;1293;59109;-74
2022/11/22 07:43:36;;;;;;;24.30;14.80;;;;;;;2.33;93.87;98972.05;105494;1295;74484;-74
2022/11/22 07:46:08;;;;;;;24.20;15.50;;;;;;;2.36;93.96;98980.89;105548;1288;69567;-74
2022/11/22 07:48:35;;;;;;;24.50;15.60;;;;;;;2.39;93.70;98984.91;105539;1294;72476;-74
2022/11/22 07:51:06;;;;;;;26.30;15.00;;;;;;;2.44;93.87;98982.85;105601;1294;59228;-74
2022/11/22 07:53:34;;;;;;;26.00;15.50;;;;;;;2.48;93.49;98986.90;105546;1291;59260;-74
2022/11/22 07:56:05;;;;;;;24.20;14.50;;;;;;;2.50;93.39;98986.40;105622;1294;73446;-74
2022/11/22 07:58:33;;;;;;;24.10;15.20;;;;;;;2.53;93.30;98987.88;105442;1290;71245;-74
2022/11/22 08:01:07;;;;;;;22.60;15.10;;;;;;;2.57;93.39;98990.03;105575;1294;71537;-74
2022/11/22 08:03:35;;;;;;;22.80;14.80;;;;;;;2.62;93.05;98995.92;105506;1294;59727;-74
2022/11/22 08:06:03;;;;;;;24.00;15.30;;;;;;;2.65;92.90;98999.64;105483;1298;60159;-74
2022/11/22 08:08:30;;;;;;;22.80;14.90;;;;;;;2.68;93.02;98995.02;105476;1293;75144;-74
2022/11/22 08:10:57;;;;;;;24.30;14.90;;;;;;;2.70;92.88;98994.93;105551;1287;70702;-74
2022/11/22 08:13:24;;;;;;;24.20;15.60;;;;;;;2.74;92.93;98992.40;105554;1278;70335;-74
2022/11/22 08:15:51;;;;;;;25.40;15.80;;;;;;;2.77;92.66;98994.33;105506;1295;58857;-74
2022/11/22 08:18:20;;;;;;;22.70;14.40;;;;;;;2.81;92.49;99001.35;105487;1295;58973;-74
2022/11/22 08:20:47;;;;;;;25.50;14.90;;;;;;;2.85;92.43;98996.89;105548;1295;74802;-74
2022/11/22 08:23:13;;;;;;;21.90;14.00;;;;;;;2.92;92.58;98999.04;105610;1287;70888;-74
2022/11/22 08:25:40;;;;;;;21.60;12.90;;;;;;;2.94;92.21;99003.12;105654;1286;59012;-74
2022/11/22 08:28:07;;;;;;;20.10;12.50;;;;;;;2.92;92.31;99004.59;105647;1293;59962;-75
2022/11/22 08:30:34;;;;;;;19.80;12.30;;;;;;;2.89;92.41;99012.80;105663;1294;58948;-74
2022/11/22 08:33:00;;;;;;;19.60;11.70;;;;;;;2.89;92.50;99018.77;105562;1294;58942;-74
2022/11/22 08:35:27;;;;;;;18.20;11.80;;;;;;;2.85;92.44;99023.25;105668;1290;59244;-75
2022/11/22 08:37:56;;;;;;;18.70;11.70;;;;;;;2.85;92.53;99026.82;105663;1291;59003;-74
2022/11/22 08:40:22;;;;;;;18.70;12.20;;;;;;;2.86;92.74;99028.48;105557;1292;60687;-74
2022/11/22 08:42:48;;;;;;;19.80;12.40;;;;;;;2.85;92.87;99027.69;105678;1287;58957;-74
2022/11/22 08:45:15;;;;;;;21.60;12.80;;;;;;;2.91;92.78;99029.16;105538;1288;59148;-74
2022/11/22 08:47:41;;;;;;;19.20;12.70;;;;;;;2.96;93.02;99028.20;105560;1286;60059;-74
2022/11/22 08:50:11;;;;;;;19.50;12.70;;;;;;;3.01;92.87;99029.12;105613;1294;59013;-74
2022/11/22 08:52:37;;;;;;;22.40;13.40;;;;;;;3.06;93.03;99028.02;105672;1295;60247;-74
2022/11/22 08:55:04;;;;;;;19.90;12.90;;;;;;;3.12;92.66;99028.92;105588;1295;59331;-74
2022/11/22 08:57:33;;;;;;;19.50;12.70;;;;;;;3.20;92.97;99031.68;105613;1294;74713;-74
2022/11/22 09:00:00;;;;;;;19.40;12.20;;;;;;;3.24;92.26;99034.55;105646;1294;71191;-74
2022/11/22 09:02:26;;;;;;;17.40;11.60;;;;;;;3.25;91.98;99038.65;105644;1294;59030;-74
2022/11/22 09:04:53;;;;;;;17.30;11.50;;;;;;;3.24;92.06;99035.44;105609;1294;59056;-74
2022/11/22 09:07:19;;;;;;;18.60;12.40;;;;;;;3.25;91.92;99033.31;105640;1295;58998;-74
2022/11/22 09:10:09;;;;;;;19.40;11.90;;;;;;;3.27;92.21;99036.95;105593;1292;74523;-74
2022/11/22 09:12:35;;;;;;;20.50;12.00;;;;;;;3.30;91.94;99041.16;105646;1290;70452;-75
2022/11/22 09:15:02;;;;;;;18.00;11.50;;;;;;;3.35;92.11;99047.76;105691;1291;59639;-74
2022/11/22 09:17:29;;;;;;;19.30;11.80;;;;;;;3.44;92.18;99053.36;105636;1294;59279;-74
2022/11/22 09:19:55;;;;;;;17.70;11.50;;;;;;;3.56;92.09;99062.73;105548;1293;58969;-74
2022/11/22 09:22:22;;;;;;;19.70;12.10;;;;;;;3.67;91.95;99069.60;105610;1298;58954;-75
2022/11/22 09:24:53;;;;;;;16.90;11.00;;;;;;;3.78;91.94;99067.88;105559;1293;69559;-74
2022/11/22 09:27:20;;;;;;;18.70;11.80;;;;;;;3.89;91.66;99066.58;105595;1290;58826;-74
2022/11/22 09:29:46;;;;;;;18.20;12.10;;;;;;;4.02;91.41;99069.53;105450;1295;58953;-75
2022/11/22 09:32:13;;;;;;;16.40;11.30;;;;;;;4.15;91.20;99067.71;105612;1295;59499;-75
2022/11/22 09:34:40;;;;;;;18.40;11.70;;;;;;;4.30;91.31;99069.68;105624;1294;58877;-74
2022/11/22 09:37:06;;;;;;;18.30;11.40;;;;;;;4.44;90.74;99067.02;105658;1287;70897;-74
2022/11/22 09:39:34;;;;;;;14.90;10.30;;;;;;;4.59;90.18;99071.60;105605;1293;71369;-74
2022/11/22 09:42:24;;;;;;;17.40;11.90;;;;;;;4.72;89.76;99073.27;105511;1295;58826;-74
2022/11/22 09:45:06;;;;;;;17.30;10.70;;;;;;;4.86;89.39;99075.45;105593;1294;58762;-75
2022/11/22 09:47:40;;;;;;;17.80;11.10;;;;;;;4.99;89.08;99072.95;105594;1293;73445;-74
2022/11/22 09:50:37;;;;;;;16.10;10.90;;;;;;;5.08;88.56;99074.89;105604;1288;69518;-75
2022/11/22 09:53:14;;;;;;;17.10;11.00;;;;;;;5.15;88.05;99074.14;105589;1294;72656;-75
2022/11/22 09:55:56;;;;;;;17.60;11.00;;;;;;;5.20;87.47;99072.08;105581;1291;59899;-75
2022/11/22 09:58:50;;;;;;;17.30;10.40;;;;;;;5.27;86.93;99079.50;105569;1294;60915;-74
2022/11/22 10:01:22;;;;;;;18.40;12.00;;;;;;;5.36;86.70;99078.09;105517;1295;74712;-74
2022/11/22 10:04:20;;;;;;;16.90;11.10;;;;;;;5.46;86.79;99078.17;105589;1293;70557;-75
2022/11/22 10:07:06;;;;;;;16.00;10.50;;;;;;;5.60;86.28;99083.27;105628;1294;71483;-74
2022/11/22 10:09:39;;;;;;;17.70;10.90;;;;;;;5.67;85.45;99079.82;105549;1287;61366;-75
2022/11/22 10:12:17;;;;;;;17.10;11.60;;;;;;;5.70;85.04;99076.19;105621;1294;59056;-74
2022/11/22 10:14:55;;;;;;;14.90;10.60;;;;;;;5.78;85.28;99074.78;105640;1293;74522;-74
2022/11/22 10:17:39;;;;;;;17.90;10.70;;;;;;;5.84;84.55;99077.66;105617;1288;69929;-75
2022/11/22 10:20:21;;;;;;;18.10;10.90;;;;;;;5.89;84.21;99073.59;105566;1292;72321;-74
2022/11/22 10:22:48;;;;;;;15.80;11.40;;;;;;;5.97;84.13;99074.23;105651;1290;61014;-74
2022/11/22 10:25:16;;;;;;;16.80;10.80;;;;;;;6.03;84.00;99071.15;105532;1295;60217;-74
2022/11/22 10:27:49;;;;;;;16.50;11.00;;;;;;;6.10;83.62;99067.41;105652;1295;74399;-74
2022/11/22 10:30:20;;;;;;;15.70;10.50;;;;;;;6.11;82.99;99068.65;105568;1294;69780;-74
2022/11/22 10:33:03;;;;;;;14.80;9.80;;;;;;;6.13;82.70;99065.95;105602;1297;72457;-74
2022/11/22 10:35:47;;;;;;;15.50;10.80;;;;;;;6.16;82.45;99060.39;105642;1295;60205;-75
2022/11/22 10:38:25;;;;;;;14.10;9.70;;;;;;;6.24;82.61;99063.73;105586;1290;58912;-75
2022/11/22 10:41:12;;;;;;;15.30;10.20;;;;;;;6.33;82.58;99059.08;105557;1293;74141;-75
2022/11/22 10:43:57;;;;;;;16.10;9.90;;;;;;;6.48;83.23;99057.15;105533;1290;70423;-75
2022/11/22 10:46:30;;;;;;;13.90;9.30;;;;;;;6.65;83.25;99059.61;105530;1287;71140;-75
2022/11/22 10:49:02;;;;;;;14.50;10.30;;;;;;;6.80;82.94;99057.38;105554;1295;59664;-75
2022/11/22 10:52:07;;;;;;;14.20;9.80;;;;;;;6.96;82.66;99053.68;105655;1292;59852;-75
2022/11/22 10:54:55;;;;;;;15.70;9.60;;;;;;;7.07;81.26;99057.91;105361;1295;72132;-75
2022/11/22 10:57:42;;;;;;;16.00;10.10;;;;;;;7.15;80.76;99053.89;105595;1287;71227;-75
2022/11/22 11:00:23;;;;;;;13.40;10.00;;;;;;;7.16;79.41;99045.38;105573;1295;72443;-75
2022/11/22 11:03:05;;;;;;;13.90;9.80;;;;;;;7.19;79.61;99038.10;105524;1295;61096;-75
2022/11/22 11:05:50;;;;;;;13.10;9.60;;;;;;;7.26;79.51;99036.13;105590;1287;59202;-75
2022/11/22 11:08:44;;;;;;;13.20;9.20;;;;;;;7.31;79.20;99031.48;105474;1294;75641;-75
2022/11/22 11:11:30;;;;;;;13.20;9.40;;;;;;;7.43;79.76;99031.66;105577;1291;71517;-75
2022/11/22 11:14:06;;;;;;;13.40;8.50;;;;;;;7.53;79.05;99029.77;105617;1291;70604;-75
2022/11/22 11:16:35;;;;;;;12.50;8.40;;;;;;;7.68;79.21;99034.50;105501;1293;59638;-75
2022/11/22 11:19:25;;;;;;;12.40;8.40;;;;;;;7.86;79.01;99031.67;105503;1294;60492;-75
2022/11/22 11:21:58;;;;;;;13.10;8.40;;;;;;;8.06;78.37;99027.55;105527;1293;75406;-75
2022/11/22 11:24:27;;;;;;;12.60;8.20;;;;;;;8.22;77.69;99023.52;105599;1293;70507;-75
2022/11/22 11:26:56;;;;;;;11.60;7.70;;;;;;;8.27;77.48;99021.55;105651;1295;74114;-75
2022/11/22 11:29:23;;;;;;;10.90;7.50;;;;;;;8.29;77.99;99022.31;105574;1291;59143;-75
2022/11/22 11:32:05;;;;;;;9.30;6.50;;;;;;;8.34;78.21;99020.38;105579;1291;58913;-75
2022/11/22 11:34:33;;;;;;;8.30;5.80;;;;;;;8.34;76.99;99022.33;105617;1295;75411;-75
2022/11/22 11:37:02;;;;;;;8.10;5.60;;;;;;;8.35;76.75;99018.01;105532;1295;71036;-75
2022/11/22 11:39:31;;;;;;;9.10;5.60;;;;;;;8.38;76.42;99019.80;105471;1295;71871;-75
2022/11/22 11:41:58;;;;;;;10.50;6.10;;;;;;;8.44;76.86;99014.44;105534;1291;61435;-75